Majestic Princess — MABI4 — position and weather

sailwx.info

Track history (hours):
 
Tides and Currents Weather Stations Pressure Air Temp Water Temp Dewpoint Dewpoint Depression Visibility Wind Speed Wind Dir Waves Ship Positions

Majestic Princess

Last reported at 2017-Dec-11 14:00 UTC. Time now 2017-Dec-12 14:18 UTC.
Position N 33°24' E 128°36'.

Length 330 m; draft 8.6 m.

Type: Passenger vessel. MMSI: 232002990.

Wind from 310 at 45 knots

Barometer 1023.7 mb
Air temperature 5.7 ° C
Visibility: greater than 10.8 NM
Dewpoint -7.6 ° C
Water temperature 20.6 ° C

Date/timePositionNaut miles runAvg speedWind from/ knotsBaromVisibWave heightAir tempDewpointWater temp
2017-Dec-11 14:00N 33°24' E 128°36'21513.4 310 / 451023.710.8 5.7-7.620.6
2017-Dec-10 22:00N 31°48' E 124°48'14314.5 340 / 401018.810.8 10.1-21.417.1
2017-Dec-10 12:07N 31°14' E 122°05'1 9.6
2017-Dec-10 11:58N 31°14' E 122°03'7 8.7
2017-Dec-10 11:06N 31°16' E 121°54'1 8.6
2017-Dec-10 10:57N 31°16' E 121°53'510.6
2017-Dec-10 10:30N 31°18' E 121°48'712.0
2017-Dec-10 09:56N 31°20' E 121°41'511.3
2017-Dec-10 09:29N 31°23' E 121°35'5 9.4
2017-Dec-10 08:59N 31°25' E 121°30'10 0.8
2017-Dec-09 20:42N 31°21' E 121°40'2 8.5
2017-Dec-09 20:30N 31°20' E 121°42'4 8.7
2017-Dec-09 20:00N 31°18' E 121°47'5 9.2
2017-Dec-09 19:30N 31°16' E 121°52'510.3
2017-Dec-09 19:01N 31°15' E 121°58'611.2
2017-Dec-09 18:30N 31°14' E 122°04'5 9.2
2017-Dec-09 18:01N 31°12' E 122°09'5 9.2
2017-Dec-09 17:30N 31°09' E 122°13'5 8.9
2017-Dec-09 16:57N 31°06' E 122°18'6 9.2
2017-Dec-09 16:15N 31°07' E 122°25'19513.7
2017-Dec-09 02:00N 32°00' E 126°06'   320 / 191022.810.8 11.0-5.420.4
2017-Dec-05 00:00N 32°06' E 126°24'   310 / 481018.110.8 16.9 1.723.0
2017-Dec-02 18:32N 31°06' E 122°32'115.5
2017-Dec-02 18:30N 31°06' E 122°32'611.5
2017-Dec-02 18:00N 31°06' E 122°25'1914.1
2017-Dec-02 16:39N 31°14' E 122°05'214.3
2017-Dec-02 16:30N 31°14' E 122°02'713.6
2017-Dec-02 16:00N 31°16' E 121°55'613.0
2017-Dec-02 15:30N 31°18' E 121°47'610.4
2017-Dec-02 14:59N 31°20' E 121°41'4 8.3
2017-Dec-02 14:28N 31°22' E 121°37'4 8.4
2017-Dec-02 14:00N 31°24' E 121°33'3 5.2
2017-Dec-02 13:30N 31°25' E 121°30'0 0.0
2017-Dec-02 12:52N 31°25' E 121°30'0 0.0
2017-Dec-02 12:28N 31°25' E 121°30'0 0.0
2017-Dec-02 11:55N 31°25' E 121°30'0 0.0
2017-Dec-02 11:28N 31°25' E 121°30'0 0.0
2017-Dec-02 09:55N 31°25' E 121°30'0 0.0
2017-Dec-02 09:13N 31°25' E 121°30'0 0.0
2017-Dec-02 08:58N 31°25' E 121°30'0 0.0
2017-Dec-02 08:28N 31°25' E 121°30'0 0.0
2017-Dec-02 07:55N 31°25' E 121°30'0 0.0
2017-Dec-02 06:46N 31°25' E 121°30'0 0.0
2017-Dec-02 06:04N 31°25' E 121°30'0 0.0
2017-Dec-02 05:52N 31°25' E 121°30'0 0.0
2017-Dec-02 05:19N 31°25' E 121°30'0 0.0
2017-Dec-02 04:46N 31°25' E 121°30'0 0.0
2017-Dec-02 04:07N 31°25' E 121°30'0 0.0
2017-Dec-02 03:52N 31°25' E 121°30'0 0.0
2017-Dec-02 03:28N 31°25' E 121°30'0 0.0
2017-Dec-02 02:52N 31°25' E 121°30'0 0.0
2017-Dec-02 02:25N 31°25' E 121°30'0 0.0
2017-Dec-02 01:52N 31°25' E 121°30'0 0.0
2017-Dec-02 01:22N 31°25' E 121°30'0 0.0
2017-Dec-02 00:52N 31°25' E 121°30'0 0.1
2017-Dec-02 00:30N 31°25' E 121°30'2 3.3
2017-Dec-02 00:00N 31°25' E 121°32'5 9.7
2017-Dec-01 23:30N 31°22' E 121°37'711.9
2017-Dec-01 22:55N 31°19' E 121°44'511.7
2017-Dec-01 22:30N 31°17' E 121°50'510.7
2017-Dec-01 22:00N 31°16' E 121°56'510.6
2017-Dec-01 21:30N 31°15' E 122°02'5 9.6
2017-Dec-01 21:00N 31°13' E 122°07'4 8.8
2017-Dec-01 20:30N 31°11' E 122°11'510.1
2017-Dec-01 19:59N 31°08' E 122°16'511.0
2017-Dec-01 19:30N 31°06' E 122°22'  
Track history (hours):
 
Tides and Currents Weather Stations Pressure Air Temp Water Temp Dewpoint Dewpoint Depression Visibility Wind Speed Wind Dir Waves Ship Positions

Majestic Princess

Last reported at 2017-Dec-11 14:00 UTC. Time now 2017-Dec-12 14:18 UTC.
Position N 33°24' E 128°36'.

Length 330 m; draft 8.6 m.

Type: Passenger vessel. MMSI: 232002990.

Wind from 310 at 45 knots

Barometer 1023.7 mb
Air temperature 5.7 ° C
Visibility: greater than 10.8 NM
Dewpoint -7.6 ° C
Water temperature 20.6 ° C

Date/timePositionNaut miles runAvg speedWind from/ knotsBaromVisibWave heightAir tempDewpointWater temp
2017-Dec-11 14:00N 33°24' E 128°36'21513.4 310 / 451023.710.8 5.7-7.620.6
2017-Dec-10 22:00N 31°48' E 124°48'14314.5 340 / 401018.810.8 10.1-21.417.1
2017-Dec-10 12:07N 31°14' E 122°05'1 9.6
2017-Dec-10 11:58N 31°14' E 122°03'7 8.7
2017-Dec-10 11:06N 31°16' E 121°54'1 8.6
2017-Dec-10 10:57N 31°16' E 121°53'510.6
2017-Dec-10 10:30N 31°18' E 121°48'712.0
2017-Dec-10 09:56N 31°20' E 121°41'511.3
2017-Dec-10 09:29N 31°23' E 121°35'5 9.4
2017-Dec-10 08:59N 31°25' E 121°30'10 0.8
2017-Dec-09 20:42N 31°21' E 121°40'2 8.5
2017-Dec-09 20:30N 31°20' E 121°42'4 8.7
2017-Dec-09 20:00N 31°18' E 121°47'5 9.2
2017-Dec-09 19:30N 31°16' E 121°52'510.3
2017-Dec-09 19:01N 31°15' E 121°58'611.2
2017-Dec-09 18:30N 31°14' E 122°04'5 9.2
2017-Dec-09 18:01N 31°12' E 122°09'5 9.2
2017-Dec-09 17:30N 31°09' E 122°13'5 8.9
2017-Dec-09 16:57N 31°06' E 122°18'6 9.2
2017-Dec-09 16:15N 31°07' E 122°25'19513.7
2017-Dec-09 02:00N 32°00' E 126°06'   320 / 191022.810.8 11.0-5.420.4
2017-Dec-05 00:00N 32°06' E 126°24'   310 / 481018.110.8 16.9 1.723.0
2017-Dec-02 18:32N 31°06' E 122°32'115.5
2017-Dec-02 18:30N 31°06' E 122°32'611.5
2017-Dec-02 18:00N 31°06' E 122°25'1914.1
2017-Dec-02 16:39N 31°14' E 122°05'214.3
2017-Dec-02 16:30N 31°14' E 122°02'713.6
2017-Dec-02 16:00N 31°16' E 121°55'613.0
2017-Dec-02 15:30N 31°18' E 121°47'610.4
2017-Dec-02 14:59N 31°20' E 121°41'4 8.3
2017-Dec-02 14:28N 31°22' E 121°37'4 8.4
2017-Dec-02 14:00N 31°24' E 121°33'3 5.2
2017-Dec-02 13:30N 31°25' E 121°30'0 0.0
2017-Dec-02 12:52N 31°25' E 121°30'0 0.0
2017-Dec-02 12:28N 31°25' E 121°30'0 0.0
2017-Dec-02 11:55N 31°25' E 121°30'0 0.0
2017-Dec-02 11:28N 31°25' E 121°30'0 0.0
2017-Dec-02 09:55N 31°25' E 121°30'0 0.0
2017-Dec-02 09:13N 31°25' E 121°30'0 0.0
2017-Dec-02 08:58N 31°25' E 121°30'0 0.0
2017-Dec-02 08:28N 31°25' E 121°30'0 0.0
2017-Dec-02 07:55N 31°25' E 121°30'0 0.0
2017-Dec-02 06:46N 31°25' E 121°30'0 0.0
2017-Dec-02 06:04N 31°25' E 121°30'0 0.0
2017-Dec-02 05:52N 31°25' E 121°30'0 0.0
2017-Dec-02 05:19N 31°25' E 121°30'0 0.0
2017-Dec-02 04:46N 31°25' E 121°30'0 0.0
2017-Dec-02 04:07N 31°25' E 121°30'0 0.0
2017-Dec-02 03:52N 31°25' E 121°30'0 0.0
2017-Dec-02 03:28N 31°25' E 121°30'0 0.0
2017-Dec-02 02:52N 31°25' E 121°30'0 0.0
2017-Dec-02 02:25N 31°25' E 121°30'0 0.0
2017-Dec-02 01:52N 31°25' E 121°30'0 0.0
2017-Dec-02 01:22N 31°25' E 121°30'0 0.0
2017-Dec-02 00:52N 31°25' E 121°30'0 0.1
2017-Dec-02 00:30N 31°25' E 121°30'2 3.3
2017-Dec-02 00:00N 31°25' E 121°32'5 9.7
2017-Dec-01 23:30N 31°22' E 121°37'711.9
2017-Dec-01 22:55N 31°19' E 121°44'511.7
2017-Dec-01 22:30N 31°17' E 121°50'510.7
2017-Dec-01 22:00N 31°16' E 121°56'510.6
2017-Dec-01 21:30N 31°15' E 122°02'5 9.6
2017-Dec-01 21:00N 31°13' E 122°07'4 8.8
2017-Dec-01 20:30N 31°11' E 122°11'510.1
2017-Dec-01 19:59N 31°08' E 122°16'511.0
2017-Dec-01 19:30N 31°06' E 122°22'  

Dump ship's entire track history